Time;durP1;ratioP1;P1;durP2;ratioP2;P2;SDS_P1;SDS_P2;PMS_P1;PMS_P2;Temp;Humidity;BMP_temperature;BMP_pressure;BME280_temperature;BME280_humidity;BME280_pressure;Samples;Min_cycle;Max_cycle;Signal;HPM_P1;HPM_P2
2022/01/14 03:45:39;;;;;;;15.83;6.47;;;6.80;70.40;;;;;;5791064;24;20184;31
2022/01/14 03:48:06;;;;;;;11.63;6.47;;;6.80;71.20;;;;;;4777195;30;20052;-85
2022/01/14 03:50:33;;;;;;;14.75;7.72;;;6.80;71.40;;;;;;4731658;30;20045;-84
2022/01/14 03:52:59;;;;;;;;;;;6.80;71.90;;;;;;4761174;30;20098;-85
2022/01/14 03:55:25;;;;;;;16.47;6.70;;;6.80;72.10;;;;;;4778469;30;19918;-85
2022/01/14 03:57:51;;;;;;;13.50;6.30;;;6.80;72.30;;;;;;4758497;30;20065;-85
2022/01/14 04:00:18;;;;;;;12.25;6.57;;;6.80;72.10;;;;;;4760621;30;20143;-85
2022/01/14 04:02:45;;;;;;;16.45;7.72;;;6.80;72.00;;;;;;4739900;30;20031;-84
2022/01/14 04:05:11;;;;;;;14.38;6.85;;;6.80;72.20;;;;;;4763549;30;20115;-85
2022/01/14 04:07:41;;;;;;;14.43;6.78;;;6.80;72.20;;;;;;4760579;30;20395;-85
2022/01/14 04:10:10;;;;;;;12.05;6.97;;;6.80;71.90;;;;;;4748495;30;20271;-84
2022/01/14 04:15:36;;;;;;;11.00;6.55;;;6.80;71.50;;;;;;4785306;29;20055;-84
2022/01/14 04:18:08;;;;;;;30.33;8.50;;;6.80;70.80;;;;;;4801254;29;20039;-84
2022/01/14 04:20:36;;;;;;;15.23;7.43;;;6.80;70.80;;;;;;4783022;30;20087;-84
2022/01/14 04:23:04;;;;;;;14.95;6.35;;;6.80;70.90;;;;;;4768458;30;20295;-84
2022/01/14 04:25:32;;;;;;;14.57;6.47;;;6.70;71.00;;;;;;4798279;30;20048;-84
2022/01/14 04:27:58;;;;;;;14.82;7.78;;;6.70;71.90;;;;;;4783741;30;20387;-85
2022/01/14 04:30:24;;;;;;;13.65;7.05;;;6.70;72.00;;;;;;4798369;30;20031;-85
2022/01/14 04:32:51;;;;;;;15.88;7.40;;;6.70;72.50;;;;;;4783337;30;20055;-85
2022/01/14 04:35:17;;;;;;;12.05;6.45;;;6.70;72.40;;;;;;4783455;30;20047;-85
2022/01/14 04:37:42;;;;;;;12.95;6.60;;;6.70;72.70;;;;;;4783190;30;20051;-85
2022/01/14 04:40:09;;;;;;;11.75;5.93;;;6.70;73.00;;;;;;4768517;30;20039;-85
2022/01/14 04:42:37;;;;;;;13.23;6.82;;;6.70;73.10;;;;;;4798236;29;20080;-84
2022/01/14 04:45:04;;;;;;;16.88;8.02;;;6.70;73.40;;;;;;4783297;30;20067;-85
2022/01/14 04:47:33;;;;;;;12.10;6.50;;;6.70;73.70;;;;;;4783987;30;20078;-85
2022/01/14 04:50:00;;;;;;;13.60;6.80;;;6.60;74.00;;;;;;4789225;30;20055;-85
2022/01/14 04:52:28;;;;;;;13.45;6.80;;;6.60;74.50;;;;;;4774662;30;20036;-84
2022/01/14 04:54:55;;;;;;;11.40;6.50;;;6.60;75.00;;;;;;4774421;30;20028;-85
2022/01/14 04:57:21;;;;;;;16.10;7.35;;;6.60;75.00;;;;;;4759545;30;20076;-85
2022/01/14 04:59:50;;;;;;;13.35;6.72;;;6.60;75.40;;;;;;4774210;30;20025;-84
2022/01/14 05:02:16;;;;;;;15.00;6.88;;;6.60;75.70;;;;;;4771318;30;20034;-84
2022/01/14 05:04:44;;;;;;;14.75;6.65;;;6.60;76.20;;;;;;4776318;30;20031;-83
2022/01/14 05:07:14;;;;;;;10.93;5.82;;;6.60;76.70;;;;;;4753450;30;20044;-84
2022/01/14 05:09:45;;;;;;;15.65;7.40;;;6.60;76.90;;;;;;4748024;30;20081;-84
2022/01/14 05:12:11;;;;;;;12.95;6.90;;;6.60;76.90;;;;;;4762667;30;20036;-84
2022/01/14 05:14:38;;;;;;;16.27;6.47;;;6.70;76.90;;;;;;4756305;30;20047;-84
2022/01/14 05:17:04;;;;;;;14.75;7.28;;;6.70;76.80;;;;;;4773332;30;20048;-84
2022/01/14 05:19:30;;;;;;;13.87;6.33;;;6.70;77.10;;;;;;4747788;30;20032;-84
2022/01/14 05:21:56;;;;;;;16.25;7.13;;;6.70;77.10;;;;;;4759791;30;20036;-84
2022/01/14 05:24:23;;;;;;;17.38;6.78;;;6.80;77.20;;;;;;4765625;30;20040;-83
2022/01/14 05:26:50;;;;;;;16.38;7.28;;;6.80;76.90;;;;;;4756204;30;20341;-83
2022/01/14 05:29:16;;;;;;;20.10;8.18;;;6.80;77.10;;;;;;4765351;30;20044;-84
2022/01/14 05:31:49;;;;;;;15.50;7.03;;;6.80;78.20;;;;;;4761440;30;20296;-83
2022/01/14 05:34:15;;;;;;;13.95;7.45;;;6.90;78.50;;;;;;4762054;30;20040;-84
2022/01/14 05:36:41;;;;;;;13.02;7.07;;;6.90;78.70;;;;;;4761824;30;20111;-84
2022/01/14 05:39:08;;;;;;;12.15;6.57;;;6.90;79.20;;;;;;4761968;30;20039;-84
2022/01/14 05:41:35;;;;;;;12.68;6.57;;;6.90;79.00;;;;;;4761805;30;20040;-84
2022/01/14 05:44:02;;;;;;;14.00;7.28;;;7.00;79.20;;;;;;4761896;30;20032;-84
2022/01/14 05:46:28;;;;;;;14.10;7.32;;;7.00;79.30;;;;;;4751110;30;20116;-84
2022/01/14 05:48:54;;;;;;;16.23;7.78;;;7.00;79.70;;;;;;4794567;29;20031;-84
2022/01/14 05:51:20;;;;;;;13.50;6.82;;;7.00;79.60;;;;;;4794128;30;20061;-84
2022/01/14 05:53:46;;;;;;;13.80;6.47;;;7.10;79.70;;;;;;4779260;30;20232;-84
2022/01/14 05:56:11;;;;;;;12.18;6.15;;;7.10;79.80;;;;;;4779378;30;20085;-84
2022/01/14 05:58:37;;;;;;;14.52;6.07;;;7.20;79.50;;;;;;4764701;30;20071;-85
2022/01/14 06:01:03;;;;;;;12.52;6.05;;;7.20;79.20;;;;;;4761333;30;20039;-84
2022/01/14 06:03:29;;;;;;;18.40;7.13;;;7.20;78.90;;;;;;4767308;30;20060;-84
2022/01/14 06:05:55;;;;;;;12.23;5.85;;;7.30;79.00;;;;;;4774188;30;20037;-84
2022/01/14 06:08:20;;;;;;;11.77;5.78;;;7.30;79.00;;;;;;4759736;30;20063;-84
2022/01/14 06:10:46;;;;;;;11.15;5.38;;;7.20;78.60;;;;;;4774772;30;20076;-84
2022/01/14 06:13:12;;;;;;;10.90;5.55;;;7.30;78.60;;;;;;4768818;30;20032;-84
2022/01/14 06:15:38;;;;;;;13.88;6.65;;;7.30;78.30;;;;;;4771393;30;20088;-84
2022/01/14 06:18:03;;;;;;;14.15;6.78;;;7.30;78.10;;;;;;4778950;30;20278;-84
2022/01/14 06:20:29;;;;;;;12.60;6.13;;;7.30;78.20;;;;;;4776099;30;20301;-84
2022/01/14 06:22:55;;;;;;;12.88;6.72;;;7.30;78.20;;;;;;4779121;30;20036;-84
2022/01/14 06:25:21;;;;;;;13.48;6.30;;;7.30;78.10;;;;;;4794091;30;20043;-84
2022/01/14 06:27:47;;;;;;;14.77;7.32;;;7.30;77.90;;;;;;4778865;30;20063;-83
2022/01/14 06:30:13;;;;;;;10.55;6.07;;;7.30;77.70;;;;;;4793942;30;20302;-84
2022/01/14 06:32:41;;;;;;;12.98;6.60;;;7.20;77.50;;;;;;4764082;30;20055;-84
2022/01/14 06:35:12;;;;;;;14.27;7.05;;;7.20;77.10;;;;;;4793879;30;20332;-84
2022/01/14 06:37:39;;;;;;;12.45;6.47;;;7.20;77.20;;;;;;4793751;29;20036;-84
2022/01/14 06:40:05;;;;;;;12.57;6.57;;;7.10;77.10;;;;;;4778918;30;20036;-84
2022/01/14 06:42:32;;;;;;;13.20;6.65;;;7.10;77.10;;;;;;4763759;30;20036;-84
2022/01/14 06:44:57;;;;;;;14.38;7.65;;;7.10;77.10;;;;;;4758442;30;20055;-84
2022/01/14 06:47:23;;;;;;;12.18;6.47;;;7.10;77.10;;;;;;4770873;30;20055;-84
2022/01/14 06:49:50;;;;;;;12.02;6.20;;;7.10;77.40;;;;;;4773026;30;20106;-84
2022/01/14 06:52:18;;;;;;;15.57;6.93;;;7.00;77.20;;;;;;4775225;30;20059;-84
2022/01/14 06:54:44;;;;;;;15.77;7.38;;;7.00;77.10;;;;;;4770626;30;20043;-84
2022/01/14 06:57:10;;;;;;;11.38;6.05;;;7.00;77.30;;;;;;4777747;30;20051;-84
2022/01/14 06:59:36;;;;;;;14.20;7.78;;;7.00;77.50;;;;;;4777968;30;20115;-84
2022/01/14 07:02:02;;;;;;;14.20;7.28;;;6.90;77.70;;;;;;4777137;30;20245;-84
2022/01/14 07:04:28;;;;;;;14.60;7.30;;;7.00;78.00;;;;;;4762848;30;20067;-84
2022/01/14 07:06:54;;;;;;;11.98;6.40;;;7.00;78.10;;;;;;4777733;30;20089;-84
2022/01/14 07:09:20;;;;;;;13.48;5.93;;;7.00;78.10;;;;;;4766103;30;20237;-84
2022/01/14 07:11:52;;;;;;;11.50;5.68;;;7.00;78.10;;;;;;4771800;30;20043;-84
2022/01/14 07:14:19;;;;;;;11.77;5.95;;;7.10;77.90;;;;;;4792673;29;20048;-84
2022/01/14 07:16:47;;;;;;;12.15;6.03;;;7.10;78.00;;;;;;4767221;30;20077;-84
2022/01/14 07:19:13;;;;;;;11.48;6.22;;;7.10;78.00;;;;;;4777726;30;20066;-84
2022/01/14 07:21:39;;;;;;;11.38;5.68;;;7.10;77.70;;;;;;4777532;30;20570;-84
2022/01/14 07:24:06;;;;;;;12.23;5.73;;;7.20;78.20;;;;;;4777726;30;20038;-84
2022/01/14 07:26:34;;;;;;;13.00;5.72;;;7.20;77.70;;;;;;4777563;30;20024;-84
2022/01/14 07:29:00;;;;;;;12.40;5.85;;;7.30;78.30;;;;;;4763053;30;20135;-84
2022/01/14 07:31:26;;;;;;;13.10;5.95;;;7.40;78.50;;;;;;4777517;30;20031;-84
2022/01/14 07:33:52;;;;;;;13.00;5.18;;;7.50;78.10;;;;;;4777512;30;20036;-84
2022/01/14 07:36:18;;;;;;;10.43;5.10;;;7.60;77.40;;;;;;4776985;30;20336;-84
2022/01/14 07:38:43;;;;;;;9.45;4.93;;;7.70;77.20;;;;;;4767683;30;20126;-83
2022/01/14 07:41:09;;;;;;;7.10;4.40;;;7.70;76.60;;;;;;4748155;30;20059;-84
2022/01/14 07:43:35;;;;;;;9.65;4.82;;;7.80;75.80;;;;;;4765433;30;20274;-85
2022/01/14 07:46:08;;;;;;;13.43;5.10;;;7.90;75.70;;;;;;4764441;30;20047;-85
2022/01/14 07:48:34;;;;;;;7.55;4.65;;;8.00;75.30;;;;;;4765392;30;20455;-85
2022/01/14 07:51:00;;;;;;;9.05;4.78;;;8.00;75.10;;;;;;4776548;30;20305;-84
2022/01/14 07:53:25;;;;;;;9.35;4.65;;;8.10;74.50;;;;;;4752708;30;20160;-84
2022/01/14 07:55:51;;;;;;;14.20;5.88;;;8.10;74.10;;;;;;4772122;30;20109;-85
2022/01/14 07:58:17;;;;;;;8.18;4.78;;;8.20;73.90;;;;;;4769131;30;20054;-84
2022/01/14 08:00:43;;;;;;;9.85;4.80;;;8.20;74.40;;;;;;4750501;30;20046;-85
2022/01/14 08:03:09;;;;;;;11.68;5.30;;;8.30;74.30;;;;;;4765278;30;20036;-85
2022/01/14 08:05:35;;;;;;;12.38;5.30;;;8.40;74.00;;;;;;4751288;30;20118;-85
2022/01/14 08:08:05;;;;;;;15.13;5.75;;;8.40;73.40;;;;;;4777849;30;20043;-83
2022/01/14 08:10:36;;;;;;;13.85;5.78;;;8.50;73.50;;;;;;4779296;30;20043;-84
2022/01/14 08:13:03;;;;;;;11.70;5.75;;;8.60;73.00;;;;;;4774998;30;20044;-85
2022/01/14 08:15:28;;;;;;;10.73;5.30;;;8.60;72.50;;;;;;4780192;30;20059;-84
2022/01/14 08:17:55;;;;;;;17.52;6.05;;;8.60;72.20;;;;;;4766418;30;20300;-85
2022/01/14 08:20:21;;;;;;;12.60;5.20;;;8.60;71.70;;;;;;4777026;30;20032;-85
2022/01/14 08:22:47;;;;;;;16.92;7.20;;;8.70;72.10;;;;;;4764915;30;20093;-83
2022/01/14 08:25:13;;;;;;;11.15;5.93;;;8.70;72.10;;;;;;4785195;30;20037;-83
2022/01/14 08:27:39;;;;;;;13.98;6.30;;;8.80;71.70;;;;;;4762891;30;20051;-83
2022/01/14 08:30:07;;;;;;;10.98;5.72;;;8.90;72.50;;;;;;4778855;30;20036;-85
2022/01/14 08:32:33;;;;;;;10.23;5.47;;;8.90;72.00;;;;;;4779790;30;20032;-84
2022/01/14 08:34:59;;;;;;;8.85;4.68;;;8.90;71.70;;;;;;4763197;30;20093;-84
2022/01/14 08:37:25;;;;;;;10.23;5.75;;;8.90;70.90;;;;;;4778450;30;20036;-84
2022/01/14 08:39:50;;;;;;;11.00;5.40;;;9.00;71.20;;;;;;4767128;30;20044;-84
2022/01/14 08:42:17;;;;;;;11.00;5.47;;;8.90;70.90;;;;;;4777522;30;20225;-84
2022/01/14 08:44:43;;;;;;;12.70;6.30;;;9.00;70.70;;;;;;4770322;30;20051;-84
2022/01/14 08:47:11;;;;;;;11.18;5.68;;;9.00;70.20;;;;;;4777923;30;20126;-84
2022/01/14 08:49:41;;;;;;;9.68;5.03;;;9.00;69.80;;;;;;4792984;30;20055;-84
2022/01/14 08:52:09;;;;;;;12.35;6.47;;;9.00;69.80;;;;;;4765137;30;20106;-85
2022/01/14 08:54:35;;;;;;;15.35;6.40;;;9.00;69.20;;;;;;4779436;30;20096;-85
2022/01/14 08:57:03;;;;;;;12.20;6.28;;;9.00;68.90;;;;;;4761489;30;20040;-84
2022/01/14 08:59:30;;;;;;;12.82;6.53;;;9.00;69.00;;;;;;4793916;30;20039;-85
2022/01/14 09:01:56;;;;;;;;;;;9.00;68.80;;;;;;4778681;30;20040;-85
2022/01/14 09:04:24;;;;;;;14.90;6.43;;;9.00;68.60;;;;;;4779293;30;19916;-85
2022/01/14 09:06:51;;;;;;;11.88;7.20;;;9.10;68.30;;;;;;4763653;30;20055;-85
2022/01/14 09:09:17;;;;;;;12.98;6.72;;;9.10;67.90;;;;;;4779077;30;20304;-84
2022/01/14 09:11:43;;;;;;;12.18;6.80;;;9.10;67.70;;;;;;4762834;30;20239;-85
2022/01/14 09:14:09;;;;;;;13.43;7.20;;;9.10;68.60;;;;;;4779240;30;20131;-84
2022/01/14 09:16:36;;;;;;;10.60;5.88;;;9.20;67.50;;;;;;4778825;30;20035;-85
2022/01/14 09:19:02;;;;;;;10.52;6.45;;;9.20;67.00;;;;;;4764386;30;20327;-85
2022/01/14 09:21:28;;;;;;;13.52;6.15;;;9.30;67.50;;;;;;4778983;30;20035;-85
2022/01/14 09:24:03;;;;;;;12.30;6.20;;;9.30;67.40;;;;;;4779018;30;20060;-84
2022/01/14 09:26:30;;;;;;;14.30;6.53;;;9.40;67.40;;;;;;4778845;30;20081;-83
2022/01/14 09:28:56;;;;;;;11.68;6.40;;;9.50;67.70;;;;;;4778772;29;20024;-85
2022/01/14 09:31:22;;;;;;;13.85;6.60;;;9.60;67.50;;;;;;4778991;30;20084;-84
2022/01/14 09:33:48;;;;;;;14.73;6.18;;;9.70;67.60;;;;;;4779064;30;20132;-84
2022/01/14 09:36:14;;;;;;;12.18;6.60;;;9.70;67.50;;;;;;4763832;30;20036;-85
2022/01/14 09:38:40;;;;;;;15.15;6.70;;;9.90;67.30;;;;;;4764221;30;20067;-85
2022/01/14 09:41:09;;;;;;;15.98;7.28;;;9.90;67.50;;;;;;4794120;29;20039;-86
2022/01/14 09:43:38;;;;;;;15.77;6.38;;;9.90;66.80;;;;;;4764114;30;20063;-85
2022/01/14 09:46:07;;;;;;;19.25;7.63;;;9.90;66.80;;;;;;4777448;30;20139;-83
2022/01/14 09:48:34;;;;;;;13.35;6.72;;;9.90;66.60;;;;;;4778761;30;20341;-85
2022/01/14 09:51:01;;;;;;;20.77;7.60;;;9.90;66.40;;;;;;4778987;30;20338;-84
2022/01/14 09:53:29;;;;;;;12.55;6.57;;;9.90;66.30;;;;;;4777999;30;20062;-85
2022/01/14 09:55:55;;;;;;;13.18;7.35;;;9.80;66.60;;;;;;4793659;29;20236;-84
2022/01/14 09:58:26;;;;;;;12.90;6.70;;;9.90;66.20;;;;;;4778528;30;20035;-85
2022/01/14 10:01:09;;;;;;;16.75;6.95;;;9.90;66.10;;;;;;4774074;30;20059;-84
2022/01/14 10:03:56;;;;;;;13.57;6.88;;;9.90;65.80;;;;;;4775030;30;20118;-85
2022/01/14 10:06:47;;;;;;;11.85;6.55;;;10.00;65.70;;;;;;4760431;30;20032;-85
2022/01/14 10:09:22;;;;;;;13.18;6.35;;;10.00;65.20;;;;;;4773548;30;20043;-84
2022/01/14 10:12:01;;;;;;;10.23;5.72;;;10.10;65.70;;;;;;4771950;30;20288;-85
2022/01/14 10:14:28;;;;;;;11.93;6.63;;;10.10;65.10;;;;;;4767815;30;20067;-84
2022/01/14 10:16:59;;;;;;;10.57;6.00;;;10.20;65.30;;;;;;4745989;30;20035;-83
2022/01/14 10:19:30;;;;;;;10.15;5.85;;;10.20;64.60;;;;;;4754222;30;20059;-85
2022/01/14 10:21:57;;;;;;;13.43;5.82;;;10.30;64.70;;;;;;4771344;30;20074;-85
2022/01/14 10:24:25;;;;;;;12.60;5.70;;;10.30;64.70;;;;;;4777062;30;20047;-85
2022/01/14 10:26:57;;;;;;;10.02;5.50;;;10.50;64.20;;;;;;4777528;30;20115;-84
2022/01/14 10:29:38;;;;;;;12.60;5.55;;;10.60;63.80;;;;;;4762524;30;20027;-86
2022/01/14 10:32:06;;;;;;;14.40;5.65;;;10.60;63.10;;;;;;4762550;30;20034;-85
2022/01/14 10:34:33;;;;;;;10.90;4.60;;;10.70;63.00;;;;;;4777383;30;20194;-85
2022/01/14 10:37:14;;;;;;;8.50;4.88;;;10.70;62.40;;;;;;4762531;30;20079;-85
2022/01/14 10:39:48;;;;;;;9.85;4.82;;;10.80;62.10;;;;;;4777391;30;20039;-85
2022/01/14 10:42:28;;;;;;;8.65;4.25;;;10.80;61.50;;;;;;4762543;30;20048;-85
2022/01/14 10:44:55;;;;;;;9.73;4.38;;;10.80;61.10;;;;;;4762751;30;20032;-85
2022/01/14 10:47:26;;;;;;;9.02;5.03;;;10.80;60.50;;;;;;4777768;30;20277;-83
2022/01/14 10:49:56;;;;;;;8.00;4.57;;;10.90;60.50;;;;;;4792836;30;20097;-83
2022/01/14 10:52:27;;;;;;;8.63;4.43;;;10.90;60.20;;;;;;4775090;30;20231;-84
2022/01/14 10:54:56;;;;;;;7.85;4.25;;;10.90;59.30;;;;;;4776691;30;20381;-84
2022/01/14 10:57:25;;;;;;;8.05;4.25;;;10.90;60.00;;;;;;4792657;29;20340;-85
2022/01/14 10:59:54;;;;;;;7.47;4.05;;;10.90;59.40;;;;;;4778102;30;20035;-84
2022/01/14 11:02:39;;;;;;;7.25;4.15;;;11.00;59.20;;;;;;4775732;30;20319;-84
2022/01/14 11:05:11;;;;;;;6.85;4.03;;;11.00;59.60;;;;;;4761339;30;20032;-84
2022/01/14 11:07:38;;;;;;;7.90;4.40;;;11.10;58.90;;;;;;4776855;30;20040;-83
2022/01/14 11:10:18;;;;;;;8.77;3.75;;;11.10;58.90;;;;;;4763409;30;20601;-84
2022/01/14 11:12:44;;;;;;;6.75;3.38;;;11.10;58.40;;;;;;4777811;30;20051;-85
2022/01/14 11:15:11;;;;;;;7.03;3.10;;;11.10;58.20;;;;;;4778087;30;20042;-85
2022/01/14 11:17:38;;;;;;;7.25;3.40;;;11.10;58.00;;;;;;4779034;30;20257;-84
2022/01/14 11:20:08;;;;;;;8.38;3.45;;;11.20;58.10;;;;;;4778101;30;20050;-84
2022/01/14 11:25:19;;;;;;;6.10;3.10;;;11.20;58.00;;;;;;4774867;30;20328;-85
2022/01/14 11:27:51;;;;;;;;;;;11.20;58.40;;;;;;4789645;30;20063;-85
2022/01/14 11:30:17;;;;;;;5.35;2.83;;;11.30;57.40;;;;;;4779433;30;20137;-84
2022/01/14 11:32:58;;;;;;;7.65;3.38;;;11.30;57.30;;;;;;4781512;30;20088;-85
2022/01/14 11:35:26;;;;;;;5.60;3.13;;;11.30;57.30;;;;;;4781487;30;20051;-85
2022/01/14 11:37:52;;;;;;;5.63;3.40;;;11.30;57.30;;;;;;4764394;30;20043;-84
2022/01/14 11:40:19;;;;;;;5.37;3.50;;;11.30;56.60;;;;;;4779310;30;20332;-85
2022/01/14 11:42:59;;;;;;;7.82;3.72;;;11.30;56.40;;;;;;4764053;30;20043;-85
2022/01/14 11:45:47;;;;;;;5.70;3.10;;;11.30;56.00;;;;;;4780177;30;20043;-85
2022/01/14 11:48:35;;;;;;;17.13;3.72;;;11.30;55.60;;;;;;4765102;30;20358;-85
2022/01/14 11:51:14;;;;;;;6.30;2.60;;;11.30;55.60;;;;;;4792355;30;20040;-85
2022/01/14 11:53:48;;;;;;;6.70;3.00;;;11.30;55.00;;;;;;4766743;30;20051;-84
2022/01/14 11:56:34;;;;;;;7.30;3.15;;;11.30;55.30;;;;;;4779039;30;20036;-85
2022/01/14 11:59:18;;;;;;;8.95;3.88;;;11.40;54.70;;;;;;4748768;30;20086;-85
2022/01/14 12:01:45;;;;;;;7.57;3.42;;;11.40;54.70;;;;;;4763281;30;20052;-85
2022/01/14 12:04:11;;;;;;;8.25;2.80;;;11.40;54.50;;;;;;4764036;30;20048;-84
2022/01/14 12:07:06;;;;;;;9.45;3.22;;;11.50;54.30;;;;;;4774662;29;20091;-85
2022/01/14 12:09:59;;;;;;;4.80;2.63;;;11.60;54.20;;;;;;4705112;30;20227;-84
2022/01/14 12:12:31;;;;;;;5.60;3.35;;;11.70;54.10;;;;;;4702077;30;20094;-85
2022/01/14 12:15:04;;;;;;;4.22;2.28;;;11.70;53.90;;;;;;4705880;30;20098;-85
2022/01/14 12:17:38;;;;;;;4.78;2.20;;;11.70;53.40;;;;;;4705213;30;20066;-84
2022/01/14 12:20:15;;;;;;;6.40;2.67;;;11.70;53.50;;;;;;4704771;30;20102;-84
2022/01/14 12:22:43;;;;;;;7.47;2.60;;;11.80;54.00;;;;;;4691325;30;20045;-84
2022/01/14 12:25:09;;;;;;;4.30;2.40;;;11.90;54.10;;;;;;4682587;30;20042;-84
2022/01/14 12:27:45;;;;;;;6.88;2.80;;;11.90;53.20;;;;;;4705704;30;20053;-84
2022/01/14 12:30:22;;;;;;;10.15;2.60;;;11.90;54.00;;;;;;4701074;30;20093;-84
2022/01/14 12:32:50;;;;;;;5.35;2.95;;;11.90;53.90;;;;;;4685544;30;20233;-85
2022/01/14 12:35:18;;;;;;;4.72;2.95;;;11.90;54.30;;;;;;4692955;30;20045;-84
2022/01/14 12:37:55;;;;;;;4.40;2.47;;;11.90;54.50;;;;;;4720799;30;20049;-84
2022/01/14 12:40:27;;;;;;;5.88;3.05;;;11.90;54.80;;;;;;4719372;30;20048;-84
2022/01/14 12:43:02;;;;;;;4.05;2.72;;;11.90;55.30;;;;;;4736852;30;20037;-84
2022/01/14 12:48:56;;;;;;;9.27;3.47;;;11.80;55.60;;;;;;4762969;30;20084;-86
2022/01/14 12:51:22;;;;;;;5.60;3.10;;;11.80;56.00;;;;;;4755794;30;20052;-84
2022/01/14 12:53:53;;;;;;;7.55;3.67;;;11.80;56.30;;;;;;4755440;30;20036;-84
2022/01/14 12:56:22;;;;;;;4.85;2.85;;;11.80;56.00;;;;;;4746701;30;20048;-85
2022/01/14 12:58:56;;;;;;;5.93;2.78;;;11.70;56.30;;;;;;4775637;30;20044;-84
2022/01/14 13:01:34;;;;;;;6.70;3.00;;;11.70;56.00;;;;;;4769608;30;20036;-85
2022/01/14 13:04:03;;;;;;;6.22;3.33;;;11.80;56.00;;;;;;4763867;30;20395;-85
2022/01/14 13:06:42;;;;;;;7.25;3.10;;;11.80;55.00;;;;;;4778249;30;20036;-85
2022/01/14 13:09:09;;;;;;;8.32;3.53;;;11.70;54.80;;;;;;4763059;30;20036;-85
2022/01/14 13:11:51;;;;;;;7.32;3.13;;;11.80;54.30;;;;;;4778236;30;20087;-85
2022/01/14 13:14:24;;;;;;;5.38;2.20;;;11.70;53.30;;;;;;4775193;30;20114;-85
2022/01/14 13:16:52;;;;;;;8.88;2.35;;;11.60;53.00;;;;;;4763755;30;20047;-84
2022/01/14 13:19:32;;;;;;;5.63;2.70;;;11.60;53.30;;;;;;4763328;30;20351;-84
2022/01/14 13:22:01;;;;;;;7.85;2.95;;;11.60;53.40;;;;;;4764170;30;20110;-84
2022/01/14 13:24:31;;;;;;;7.03;2.63;;;11.50;54.00;;;;;;4778444;30;20051;-84
2022/01/14 13:27:19;;;;;;;10.55;3.38;;;11.50;54.40;;;;;;4792250;29;20243;-85
2022/01/14 13:29:50;;;;;;;5.85;2.80;;;11.50;55.00;;;;;;4793927;30;20061;-85
2022/01/14 13:32:28;;;;;;;7.32;3.33;;;11.40;55.00;;;;;;4779453;30;20232;-84
2022/01/14 13:34:57;;;;;;;7.85;3.25;;;11.40;54.80;;;;;;4777057;30;20324;-85
2022/01/14 13:37:27;;;;;;;12.27;3.20;;;11.30;55.20;;;;;;4778809;30;20095;-86
2022/01/14 13:40:05;;;;;;;9.75;3.15;;;11.30;55.00;;;;;;4777014;29;20036;-86
2022/01/14 13:42:32;;;;;;;6.95;3.03;;;11.30;55.60;;;;;;4800052;29;20103;-85
2022/01/14 13:45:13;;;;;;;5.88;3.08;;;11.20;55.70;;;;;;4793903;29;20035;-84
2022/01/14 13:47:41;;;;;;;7.65;2.80;;;11.20;56.00;;;;;;4779651;30;20055;-84
2022/01/14 13:50:08;;;;;;;9.23;3.28;;;11.20;56.20;;;;;;4777938;30;20088;-83
2022/01/14 13:52:34;;;;;;;11.65;3.47;;;11.10;56.30;;;;;;4792978;29;20039;-86
2022/01/14 13:55:00;;;;;;;12.05;3.38;;;11.10;56.20;;;;;;4756879;30;20044;-86
2022/01/14 13:57:26;;;;;;;6.43;3.58;;;11.10;56.40;;;;;;4775621;30;20049;-84
2022/01/14 13:59:51;;;;;;;8.40;3.80;;;11.00;56.50;;;;;;4776435;30;20032;-85
2022/01/14 14:02:29;;;;;;;7.43;4.00;;;11.00;56.40;;;;;;4778211;30;20040;-85
2022/01/14 14:04:57;;;;;;;5.97;3.22;;;10.90;56.60;;;;;;4765416;30;20335;-85
2022/01/14 14:07:24;;;;;;;16.05;4.47;;;10.90;56.80;;;;;;4793503;30;20039;-85
2022/01/14 14:10:30;;;;;;;12.40;4.35;;;10.90;57.10;;;;;;4778430;30;20044;-85
2022/01/14 14:13:07;;;;;;;10.43;3.88;;;10.90;56.90;;;;;;4778266;30;20089;-85
2022/01/14 14:15:48;;;;;;;9.18;4.13;;;10.80;57.00;;;;;;4778436;30;20238;-84
2022/01/14 14:18:14;;;;;;;8.35;4.75;;;10.80;57.60;;;;;;4778542;30;20044;-85
2022/01/14 14:20:40;;;;;;;9.43;4.82;;;10.70;57.80;;;;;;4763269;30;20111;-86
2022/01/14 14:23:22;;;;;;;7.45;3.85;;;10.70;57.80;;;;;;4778507;30;20044;-85
2022/01/14 14:25:50;;;;;;;12.90;5.70;;;10.70;58.00;;;;;;4778429;30;20044;-85
2022/01/14 14:28:16;;;;;;;10.73;4.07;;;10.60;58.20;;;;;;4765246;30;20043;-85
2022/01/14 14:30:54;;;;;;;8.93;4.17;;;10.60;58.40;;;;;;4777734;30;20062;-85
2022/01/14 14:33:22;;;;;;;7.97;4.25;;;10.60;58.50;;;;;;4777881;30;20118;-84
2022/01/14 14:35:56;;;;;;;10.23;3.90;;;10.60;58.60;;;;;;4763159;30;20316;-84
2022/01/14 14:38:26;;;;;;;16.85;5.05;;;10.50;58.60;;;;;;4760256;30;20060;-85
2022/01/14 14:40:58;;;;;;;9.38;4.70;;;10.50;58.50;;;;;;4775156;30;20123;-84
2022/01/14 14:43:24;;;;;;;7.90;4.55;;;10.50;58.40;;;;;;4768378;30;20383;-84
2022/01/14 14:45:50;;;;;;;9.77;4.45;;;10.40;58.50;;;;;;4773825;30;20020;-84
2022/01/14 14:48:17;;;;;;;8.80;4.30;;;10.40;58.60;;;;;;4773974;30;20048;-84
2022/01/14 14:50:43;;;;;;;8.68;4.53;;;10.40;58.80;;;;;;4777839;30;20078;-84
2022/01/14 14:53:09;;;;;;;8.98;4.90;;;10.30;58.90;;;;;;4791742;29;20343;-84
2022/01/14 14:55:35;;;;;;;9.82;5.28;;;10.20;58.90;;;;;;4776780;30;20235;-85
2022/01/14 14:58:01;;;;;;;11.00;5.72;;;10.20;59.10;;;;;;4777316;30;20035;-85
2022/01/14 15:00:27;;;;;;;14.25;4.80;;;10.20;59.20;;;;;;4777541;30;20035;-84
2022/01/14 15:02:55;;;;;;;10.55;5.13;;;10.10;59.00;;;;;;4761045;30;20285;-84
2022/01/14 15:05:22;;;;;;;10.07;5.13;;;10.00;59.20;;;;;;4780569;30;20106;-85
2022/01/14 15:07:48;;;;;;;17.02;4.55;;;10.00;59.30;;;;;;4781331;30;20098;-85
2022/01/14 15:10:20;;;;;;;9.48;4.88;;;9.90;59.20;;;;;;4781235;30;20362;-85
2022/01/14 15:12:47;;;;;;;11.10;5.63;;;9.90;59.30;;;;;;4796182;29;20118;-85
2022/01/14 15:15:20;;;;;;;9.63;5.10;;;9.80;59.20;;;;;;4766585;30;20039;-85
2022/01/14 15:20:24;;;;;;;10.80;5.35;;;9.70;59.50;;;;;;4779771;30;20039;-86
2022/01/14 15:22:51;;;;;;;11.95;4.47;;;9.70;59.50;;;;;;4780397;30;20062;-84
2022/01/14 15:25:18;;;;;;;13.48;5.90;;;9.60;59.50;;;;;;4764318;30;20057;-84
2022/01/14 15:27:44;;;;;;;;;;;9.60;59.70;;;;;;4783977;30;20040;-84
2022/01/14 15:30:10;;;;;;;10.97;5.00;;;9.50;60.00;;;;;;4779359;30;19994;-84
2022/01/14 15:32:36;;;;;;;12.63;5.70;;;9.40;59.90;;;;;;4763898;30;20056;-84
2022/01/14 15:35:03;;;;;;;11.45;5.18;;;9.40;60.20;;;;;;4780587;30;20273;-84
2022/01/14 15:37:29;;;;;;;;;;;9.40;60.40;;;;;;4778244;30;20043;-84
2022/01/14 15:39:55;;;;;;;12.13;4.97;;;9.40;60.70;;;;;;4778476;30;19956;-84
2022/01/14 15:42:21;;;;;;;10.80;5.07;;;9.30;60.80;;;;;;4793777;30;20327;-84
2022/01/14 15:44:47;;;;;;;10.43;5.28;;;9.30;61.20;;;;;;4795411;30;20267;-85
2022/01/14 15:47:12;;;;;;;7.78;4.40;;;9.30;61.40;;;;;;4777381;30;20064;-84
2022/01/14 15:49:40;;;;;;;9.25;4.97;;;9.30;61.70;;;;;;4766043;30;20106;-84
2022/01/14 15:52:06;;;;;;;;;;;9.30;62.10;;;;;;4781435;30;20035;-85
2022/01/14 15:54:31;;;;;;;12.00;5.30;;;9.20;62.50;;;;;;4778195;30;19975;-84
2022/01/14 15:56:57;;;;;;;8.85;4.53;;;9.20;62.80;;;;;;4771772;30;20040;-85
2022/01/14 15:59:24;;;;;;;13.93;5.75;;;9.20;63.20;;;;;;4763263;30;20039;-85
2022/01/14 16:01:50;;;;;;;9.88;4.90;;;9.20;63.50;;;;;;4780815;30;20043;-85
2022/01/14 16:04:16;;;;;;;8.80;5.10;;;9.20;63.70;;;;;;4780437;30;20043;-85
2022/01/14 16:06:42;;;;;;;11.82;5.32;;;9.20;64.00;;;;;;4754498;30;20062;-85
2022/01/14 16:09:10;;;;;;;15.48;4.82;;;9.20;63.90;;;;;;4765950;30;20189;-85
2022/01/14 16:11:39;;;;;;;9.48;4.78;;;9.10;64.30;;;;;;4774641;30;20083;-85
2022/01/14 16:14:30;;;;;;;8.82;4.93;;;9.10;64.40;;;;;;4780310;30;20032;-86
2022/01/14 16:16:56;;;;;;;9.20;4.40;;;9.10;64.20;;;;;;4779544;30;20145;-85
2022/01/14 16:19:24;;;;;;;7.82;4.55;;;9.10;64.20;;;;;;4780747;30;20027;-85
2022/01/14 16:21:50;;;;;;;9.18;4.88;;;9.10;64.20;;;;;;4778930;30;20074;-85
2022/01/14 16:24:16;;;;;;;9.13;4.97;;;9.10;64.20;;;;;;4779739;30;20088;-86
2022/01/14 16:26:41;;;;;;;11.23;5.78;;;9.00;64.40;;;;;;4780088;30;20208;-85
2022/01/14 16:29:07;;;;;;;8.98;5.15;;;9.00;64.40;;;;;;4780057;30;20223;-85
2022/01/14 16:31:33;;;;;;;17.42;7.30;;;8.90;64.50;;;;;;4779442;30;20039;-85
2022/01/14 16:33:59;;;;;;;11.73;5.95;;;8.90;64.50;;;;;;4764305;30;20103;-85
2022/01/14 16:36:25;;;;;;;8.77;5.55;;;8.90;64.60;;;;;;4776654;30;20032;-85
2022/01/14 16:38:52;;;;;;;11.82;5.72;;;8.80;64.70;;;;;;4779853;30;20089;-85
2022/01/14 16:41:19;;;;;;;11.93;6.15;;;8.80;64.80;;;;;;4774472;30;20059;-85
2022/01/14 16:43:45;;;;;;;10.00;5.07;;;8.80;64.80;;;;;;4780007;30;20039;-85
2022/01/14 16:46:11;;;;;;;9.10;5.70;;;8.70;64.70;;;;;;4779864;30;20063;-85
2022/01/14 16:48:37;;;;;;;11.50;5.65;;;8.70;64.90;;;;;;4780525;30;20040;-85
2022/01/14 16:51:03;;;;;;;11.45;6.03;;;8.70;64.70;;;;;;4764264;30;20035;-85
2022/01/14 16:53:30;;;;;;;10.50;6.20;;;8.70;65.10;;;;;;4779577;30;20035;-85